createdAt,value
2017-09-07T00:00:39.456Z,0.00
2017-09-07T00:01:39.448Z,0.00
2017-09-07T00:02:39.462Z,0.00
2017-09-07T00:03:39.449Z,0.00
2017-09-07T00:04:39.419Z,0.00
2017-09-07T00:05:39.403Z,0.00
2017-09-07T00:06:39.393Z,0.00
2017-09-07T00:07:39.418Z,0.00
2017-09-07T00:08:39.369Z,0.00
2017-09-07T00:09:39.365Z,0.00
2017-09-07T00:10:39.362Z,0.00
2017-09-07T00:11:39.342Z,0.00
2017-09-07T00:12:39.356Z,0.00
2017-09-07T00:13:39.324Z,0.00
2017-09-07T00:14:39.306Z,0.00
2017-09-07T00:15:39.298Z,0.00
2017-09-07T00:16:39.282Z,0.00
2017-09-07T00:17:39.620Z,0.00
2017-09-07T00:18:39.269Z,0.00
2017-09-07T00:19:39.258Z,0.00
2017-09-07T00:20:39.243Z,0.00
2017-09-07T00:21:39.233Z,0.00
2017-09-07T00:22:39.234Z,0.00
2017-09-07T00:23:39.552Z,0.00
2017-09-07T00:24:39.211Z,0.00
2017-09-07T00:25:39.188Z,0.00
2017-09-07T00:26:39.182Z,0.00
2017-09-07T00:27:39.171Z,0.00
2017-09-07T00:28:39.160Z,0.00
2017-09-07T00:29:39.574Z,0.00
2017-09-07T00:30:39.142Z,0.00
2017-09-07T00:31:39.124Z,0.00
2017-09-07T00:32:39.121Z,0.00
2017-09-07T00:33:39.115Z,0.00
2017-09-07T00:34:39.094Z,0.00
2017-09-07T00:35:39.373Z,0.00
2017-09-07T00:36:39.074Z,0.00
2017-09-07T00:37:39.057Z,0.00
2017-09-07T00:38:39.049Z,0.00
2017-09-07T00:39:39.043Z,0.00
2017-09-07T00:40:39.036Z,0.00
2017-09-07T00:41:39.045Z,0.00
2017-09-07T00:42:39.453Z,0.00
2017-09-07T00:43:38.995Z,0.00
2017-09-07T00:44:38.980Z,0.00
2017-09-07T00:45:38.981Z,0.00
2017-09-07T00:46:38.960Z,0.00
2017-09-07T00:47:38.940Z,0.00
2017-09-07T00:48:39.374Z,0.00
2017-09-07T00:49:38.947Z,0.00
2017-09-07T00:50:38.911Z,0.00
2017-09-07T00:51:38.912Z,0.00
2017-09-07T00:52:38.897Z,0.00
2017-09-07T00:53:38.890Z,0.00
2017-09-07T00:54:39.387Z,0.00
2017-09-07T00:55:38.856Z,0.00
2017-09-07T00:56:38.861Z,0.00
2017-09-07T00:57:38.851Z,0.00
2017-09-07T00:58:38.827Z,0.00
2017-09-07T00:59:38.822Z,0.00
2017-09-07T01:00:39.156Z,0.00
2017-09-07T01:01:38.812Z,0.00
2017-09-07T01:02:38.779Z,0.00
2017-09-07T01:03:38.793Z,0.00
2017-09-07T01:04:38.764Z,0.00
2017-09-07T01:05:38.759Z,0.00
2017-09-07T01:06:39.159Z,0.00
2017-09-07T01:07:38.750Z,0.00
2017-09-07T01:08:38.717Z,0.00
2017-09-07T01:09:38.705Z,0.00
2017-09-07T01:10:38.699Z,0.00
2017-09-07T01:11:38.696Z,0.00
2017-09-07T01:12:39.123Z,0.00
2017-09-07T01:13:38.675Z,0.00
2017-09-07T01:14:38.652Z,0.00
2017-09-07T01:15:38.643Z,0.00
2017-09-07T01:16:38.626Z,0.00
2017-09-07T01:17:38.619Z,0.00
2017-09-07T01:18:39.014Z,0.00
2017-09-07T01:19:38.610Z,0.00
2017-09-07T01:20:38.593Z,0.00
2017-09-07T01:21:38.587Z,0.00
2017-09-07T01:22:38.565Z,0.00
2017-09-07T01:23:38.554Z,0.00
2017-09-07T01:24:38.956Z,0.00
2017-09-07T01:25:38.538Z,0.00
2017-09-07T01:26:38.521Z,0.00
2017-09-07T01:27:38.505Z,0.00
2017-09-07T01:28:38.511Z,0.00
2017-09-07T01:29:38.500Z,0.00
2017-09-07T01:30:38.810Z,0.00
2017-09-07T01:31:38.478Z,0.00
2017-09-07T01:32:38.473Z,0.00
2017-09-07T01:33:38.456Z,0.00
2017-09-07T01:34:38.443Z,0.00
2017-09-07T01:35:38.417Z,0.00
2017-09-07T01:36:38.714Z,0.00
2017-09-07T01:37:38.413Z,0.00
2017-09-07T01:38:38.407Z,0.00
2017-09-07T01:39:38.381Z,0.00
2017-09-07T01:40:38.375Z,0.00
2017-09-07T01:41:38.356Z,0.00
2017-09-07T01:42:38.382Z,0.00
2017-09-07T01:43:38.334Z,0.00
2017-09-07T01:44:38.335Z,0.00
2017-09-07T01:45:38.626Z,0.00
2017-09-07T01:46:38.320Z,0.00
2017-09-07T01:47:38.291Z,0.00
2017-09-07T01:48:38.286Z,0.00
2017-09-07T01:49:38.281Z,0.00
2017-09-07T01:50:38.259Z,0.00
2017-09-07T01:51:38.669Z,0.00
2017-09-07T01:52:38.248Z,0.00
2017-09-07T01:53:38.224Z,0.00
2017-09-07T01:54:38.224Z,0.00
2017-09-07T01:55:38.202Z,0.00
2017-09-07T01:56:38.190Z,0.00
2017-09-07T01:57:38.424Z,0.00
2017-09-07T01:58:38.167Z,0.00
2017-09-07T01:59:38.161Z,0.00
2017-09-07T02:00:38.146Z,0.00
2017-09-07T02:01:38.157Z,0.00
2017-09-07T02:02:38.125Z,0.00
2017-09-07T02:03:38.158Z,0.00
2017-09-07T02:04:38.117Z,0.00
2017-09-07T02:05:38.095Z,0.00
2017-09-07T02:06:38.400Z,0.00
2017-09-07T02:07:38.073Z,0.00
2017-09-07T02:08:38.073Z,0.00
2017-09-07T02:09:38.051Z,0.00
2017-09-07T02:10:38.050Z,0.00
2017-09-07T02:11:38.043Z,0.00
2017-09-07T02:12:38.403Z,0.00
2017-09-07T02:13:38.007Z,0.00
2017-09-07T02:14:38.006Z,0.00
2017-09-07T02:15:37.987Z,0.00
2017-09-07T02:16:37.989Z,0.00
2017-09-07T02:17:37.975Z,0.00
2017-09-07T02:18:38.232Z,0.00
2017-09-07T02:19:37.946Z,0.00
2017-09-07T02:20:37.929Z,0.00
2017-09-07T02:21:37.922Z,0.00
2017-09-07T02:22:37.917Z,0.00
2017-09-07T02:23:37.907Z,0.00
2017-09-07T02:24:38.323Z,0.00
2017-09-07T02:25:37.893Z,0.00
2017-09-07T02:26:37.865Z,0.00
2017-09-07T02:27:37.860Z,0.00
2017-09-07T02:28:37.847Z,0.00
2017-09-07T02:29:37.840Z,0.00
2017-09-07T02:30:37.867Z,0.00
2017-09-07T02:31:38.260Z,0.00
2017-09-07T02:32:37.815Z,0.00
2017-09-07T02:33:37.808Z,0.00
2017-09-07T02:34:37.795Z,0.00
2017-09-07T02:35:37.762Z,0.00
2017-09-07T02:36:37.770Z,0.00
2017-09-07T02:37:38.186Z,0.00
2017-09-07T02:38:37.733Z,0.00
2017-09-07T02:39:37.733Z,0.00
2017-09-07T02:40:37.723Z,0.00
2017-09-07T02:41:37.700Z,0.00
2017-09-07T02:42:37.687Z,0.00
2017-09-07T02:43:37.719Z,0.00
2017-09-07T02:44:37.660Z,0.00
2017-09-07T02:45:37.677Z,0.00
2017-09-07T02:46:37.656Z,0.00
2017-09-07T02:47:37.675Z,0.00
2017-09-07T02:48:38.046Z,0.00
2017-09-07T02:49:37.622Z,0.00
2017-09-07T02:50:37.625Z,0.00
2017-09-07T02:51:37.602Z,0.00
2017-09-07T02:52:37.573Z,0.00
2017-09-07T02:53:37.572Z,0.00
2017-09-07T02:54:37.587Z,0.00
2017-09-07T02:55:37.550Z,0.00
2017-09-07T02:56:37.545Z,0.00
2017-09-07T02:57:37.542Z,0.00
2017-09-07T02:58:37.552Z,0.00
2017-09-07T02:59:37.500Z,0.00
2017-09-07T03:00:37.500Z,0.00
2017-09-07T03:01:37.478Z,0.00
2017-09-07T03:02:37.476Z,0.00
2017-09-07T03:03:37.756Z,0.00
2017-09-07T03:04:37.448Z,0.00
2017-09-07T03:05:37.440Z,0.00
2017-09-07T03:06:37.426Z,0.00
2017-09-07T03:07:37.424Z,0.00
2017-09-07T03:08:37.400Z,0.00
2017-09-07T03:09:37.745Z,0.00
2017-09-07T03:10:37.379Z,0.00
2017-09-07T03:11:37.385Z,0.00
2017-09-07T03:12:37.359Z,0.00
2017-09-07T03:13:37.347Z,0.00
2017-09-07T03:14:37.342Z,0.00
2017-09-07T03:15:37.351Z,0.00
2017-09-07T03:16:37.325Z,0.00
2017-09-07T03:17:37.313Z,0.00
2017-09-07T03:18:37.302Z,0.00
2017-09-07T03:19:37.300Z,0.00
2017-09-07T03:20:37.282Z,0.00
2017-09-07T03:21:37.272Z,0.00
2017-09-07T03:22:37.283Z,0.00
2017-09-07T03:23:37.245Z,0.00
2017-09-07T03:24:37.703Z,0.00
2017-09-07T03:25:37.229Z,0.00
2017-09-07T03:26:37.214Z,0.00
2017-09-07T03:27:37.200Z,0.00
2017-09-07T03:28:37.180Z,0.00
2017-09-07T03:29:37.170Z,0.00
2017-09-07T03:30:37.615Z,0.00
2017-09-07T03:31:37.148Z,0.00
2017-09-07T03:32:37.145Z,0.00
2017-09-07T03:33:37.139Z,0.00
2017-09-07T03:34:37.120Z,0.00
2017-09-07T03:35:37.103Z,0.00
2017-09-07T03:36:37.158Z,0.00
2017-09-07T03:37:37.096Z,0.00
2017-09-07T03:38:37.096Z,0.00
2017-09-07T03:39:37.062Z,0.00
2017-09-07T03:40:37.048Z,0.00
2017-09-07T03:41:37.409Z,0.00
2017-09-07T03:42:37.025Z,0.00
2017-09-07T03:43:37.032Z,0.00
2017-09-07T03:44:37.003Z,0.00
2017-09-07T03:45:37.003Z,0.00
2017-09-07T03:46:36.995Z,0.00
2017-09-07T03:47:37.337Z,0.00
2017-09-07T03:48:36.964Z,0.00
2017-09-07T03:49:36.965Z,0.00
2017-09-07T03:50:36.940Z,0.00
2017-09-07T03:51:36.926Z,0.00
2017-09-07T03:52:36.931Z,0.00
2017-09-07T03:53:37.332Z,0.00
2017-09-07T03:54:36.910Z,0.00
2017-09-07T03:55:36.883Z,0.00
2017-09-07T03:56:36.885Z,0.00
2017-09-07T03:57:36.871Z,0.00
2017-09-07T03:58:36.861Z,0.00
2017-09-07T03:59:37.276Z,0.00
2017-09-07T04:00:36.833Z,0.00
2017-09-07T04:01:36.838Z,0.00
2017-09-07T04:02:36.818Z,0.00
2017-09-07T04:03:36.811Z,0.00
2017-09-07T04:04:36.784Z,0.00
2017-09-07T04:05:37.085Z,0.00
2017-09-07T04:06:36.779Z,0.00
2017-09-07T04:07:36.749Z,0.00
2017-09-07T04:08:36.742Z,0.00
2017-09-07T04:09:36.734Z,0.00
2017-09-07T04:10:36.734Z,0.00
2017-09-07T04:11:37.023Z,0.00
2017-09-07T04:12:36.710Z,0.00
2017-09-07T04:13:36.684Z,0.00
2017-09-07T04:14:36.675Z,0.00
2017-09-07T04:15:36.675Z,0.00
2017-09-07T04:16:36.654Z,0.00
2017-09-07T04:17:37.020Z,0.00
2017-09-07T04:18:36.634Z,0.00
2017-09-07T04:19:36.629Z,0.00
2017-09-07T04:20:36.623Z,0.00
2017-09-07T04:21:36.607Z,0.00
2017-09-07T04:22:36.601Z,0.00
2017-09-07T04:23:36.809Z,0.00
2017-09-07T04:24:36.577Z,0.00
2017-09-07T04:25:36.570Z,0.00
2017-09-07T04:26:36.559Z,0.00
2017-09-07T04:27:36.546Z,0.00
2017-09-07T04:28:36.536Z,0.00
2017-09-07T04:29:36.830Z,0.00
2017-09-07T04:30:36.512Z,0.00
2017-09-07T04:31:36.504Z,0.00
2017-09-07T04:32:36.487Z,4.00
2017-09-07T04:33:36.468Z,0.00
2017-09-07T04:34:36.451Z,0.00
2017-09-07T04:35:36.759Z,4.00
2017-09-07T04:36:36.435Z,0.00
2017-09-07T04:37:36.425Z,0.00
2017-09-07T04:38:36.409Z,4.00
2017-09-07T04:39:36.409Z,4.00
2017-09-07T04:40:36.398Z,4.00
2017-09-07T04:41:36.682Z,4.00
2017-09-07T04:42:36.712Z,4.00
2017-09-07T04:43:36.364Z,4.00
2017-09-07T04:44:36.342Z,4.00
2017-09-07T04:45:36.351Z,8.00
2017-09-07T04:46:36.334Z,8.00
2017-09-07T04:47:36.627Z,8.00
2017-09-07T04:48:36.307Z,12.00
2017-09-07T04:49:36.302Z,12.00
2017-09-07T04:50:36.293Z,12.00
2017-09-07T04:51:36.266Z,12.00
2017-09-07T04:52:36.258Z,12.00
2017-09-07T04:53:36.682Z,16.00
2017-09-07T04:54:36.244Z,16.00
2017-09-07T04:55:36.230Z,20.00
2017-09-07T04:56:36.225Z,24.00
2017-09-07T04:57:36.215Z,24.00
2017-09-07T04:58:36.203Z,24.00
2017-09-07T04:59:36.539Z,24.00
2017-09-07T05:00:36.168Z,28.00
2017-09-07T05:01:36.166Z,28.00
2017-09-07T05:02:36.165Z,32.00
2017-09-07T05:03:36.158Z,40.00
2017-09-07T05:04:36.131Z,44.00
2017-09-07T05:05:36.566Z,44.00
2017-09-07T05:06:36.119Z,48.00
2017-09-07T05:07:36.104Z,52.00
2017-09-07T05:08:36.099Z,60.00
2017-09-07T05:09:36.071Z,72.00
2017-09-07T05:10:36.078Z,72.00
2017-09-07T05:11:36.352Z,76.00
2017-09-07T05:12:36.041Z,84.00
2017-09-07T05:13:36.040Z,84.00
2017-09-07T05:14:36.019Z,84.00
2017-09-07T05:15:36.004Z,80.00
2017-09-07T05:16:36.004Z,68.00
2017-09-07T05:17:36.316Z,64.00
2017-09-07T05:18:35.974Z,64.00
2017-09-07T05:19:35.973Z,56.00
2017-09-07T05:20:35.947Z,52.00
2017-09-07T05:21:35.942Z,60.00
2017-09-07T05:22:35.927Z,68.00
2017-09-07T05:23:36.341Z,80.00
2017-09-07T05:24:35.916Z,92.00
2017-09-07T05:25:35.906Z,96.00
2017-09-07T05:26:35.900Z,88.00
2017-09-07T05:27:35.891Z,76.00
2017-09-07T05:28:35.875Z,72.00
2017-09-07T05:29:35.884Z,76.00
2017-09-07T05:30:35.846Z,72.00
2017-09-07T05:31:35.828Z,72.00
2017-09-07T05:32:36.235Z,84.00
2017-09-07T05:33:35.830Z,100.00
2017-09-07T05:34:35.800Z,120.00
2017-09-07T05:35:35.792Z,136.00
2017-09-07T05:36:35.774Z,152.00
2017-09-07T05:37:35.766Z,172.00
2017-09-07T05:38:36.083Z,184.00
2017-09-07T05:39:35.755Z,176.00
2017-09-07T05:40:35.742Z,184.00
2017-09-07T05:41:35.739Z,160.00
2017-09-07T05:42:35.725Z,168.00
2017-09-07T05:43:35.707Z,188.00
2017-09-07T05:44:36.048Z,220.00
2017-09-07T05:45:35.674Z,228.00
2017-09-07T05:46:35.678Z,232.00
2017-09-07T05:47:35.658Z,236.00
2017-09-07T05:48:35.656Z,220.00
2017-09-07T05:49:35.651Z,212.00
2017-09-07T05:50:35.919Z,236.00
2017-09-07T05:51:35.614Z,284.00
2017-09-07T05:52:35.612Z,316.00
2017-09-07T05:53:35.586Z,324.00
2017-09-07T05:54:35.584Z,300.00
2017-09-07T05:55:35.565Z,304.00
2017-09-07T05:56:35.883Z,320.00
2017-09-07T05:57:35.543Z,344.00
2017-09-07T05:58:35.532Z,344.00
2017-09-07T05:59:35.537Z,336.00
2017-09-07T06:00:35.528Z,352.00
2017-09-07T06:01:35.510Z,312.00
2017-09-07T06:02:35.777Z,328.00
2017-09-07T06:03:35.495Z,328.00
2017-09-07T06:04:35.484Z,336.00
2017-09-07T06:05:35.458Z,332.00
2017-09-07T06:06:35.467Z,340.00
2017-09-07T06:07:35.458Z,332.00
2017-09-07T06:08:35.652Z,336.00
2017-09-07T06:09:35.416Z,352.00
2017-09-07T06:10:35.407Z,364.00
2017-09-07T06:11:35.396Z,392.00
2017-09-07T06:12:35.396Z,416.00
2017-09-07T06:13:35.384Z,432.00
2017-09-07T06:14:35.786Z,440.00
2017-09-07T06:15:35.369Z,444.00
2017-09-07T06:16:35.334Z,472.00
2017-09-07T06:17:35.345Z,476.00
2017-09-07T06:18:35.331Z,512.00
2017-09-07T06:19:35.308Z,520.00
2017-09-07T06:20:35.331Z,540.00
2017-09-07T06:21:35.301Z,536.00
2017-09-07T06:22:35.277Z,556.00
2017-09-07T06:23:35.276Z,572.00
2017-09-07T06:24:35.266Z,568.00
2017-09-07T06:25:35.555Z,560.00
2017-09-07T06:26:35.244Z,556.00
2017-09-07T06:27:35.233Z,572.00
2017-09-07T06:28:35.216Z,564.00
2017-09-07T06:29:35.212Z,572.00
2017-09-07T06:30:35.199Z,608.00
2017-09-07T06:31:35.589Z,628.00
2017-09-07T06:32:35.167Z,640.00
2017-09-07T06:33:35.182Z,660.00
2017-09-07T06:34:35.154Z,696.00
2017-09-07T06:35:35.139Z,692.00
2017-09-07T06:36:35.139Z,668.00
2017-09-07T06:37:35.139Z,648.00
2017-09-07T06:38:35.117Z,656.00
2017-09-07T06:39:35.088Z,680.00
2017-09-07T06:40:35.104Z,692.00
2017-09-07T06:41:35.439Z,692.00
2017-09-07T06:42:35.070Z,724.00
2017-09-07T06:43:35.060Z,760.00
2017-09-07T06:44:35.041Z,732.00
2017-09-07T06:45:35.028Z,736.00
2017-09-07T06:46:35.039Z,744.00
2017-09-07T06:47:35.408Z,724.00
2017-09-07T06:48:34.992Z,712.00
2017-09-07T06:49:34.983Z,688.00
2017-09-07T06:50:34.975Z,692.00
2017-09-07T06:51:34.976Z,708.00
2017-09-07T06:52:34.967Z,700.00
2017-09-07T06:53:35.248Z,708.00
2017-09-07T06:54:34.942Z,712.00
2017-09-07T06:55:34.921Z,688.00
2017-09-07T06:56:34.913Z,664.00
2017-09-07T06:57:34.905Z,656.00
2017-09-07T06:58:34.904Z,656.00
2017-09-07T06:59:34.918Z,632.00
2017-09-07T07:00:34.881Z,616.00
2017-09-07T07:01:34.869Z,616.00
2017-09-07T07:02:35.182Z,604.00
2017-09-07T07:03:34.844Z,608.00
2017-09-07T07:04:34.834Z,632.00
2017-09-07T07:05:34.828Z,664.00
2017-09-07T07:06:34.818Z,688.00
2017-09-07T07:07:34.798Z,728.00
2017-09-07T07:08:34.820Z,724.00
2017-09-07T07:09:34.792Z,756.00
2017-09-07T07:10:34.780Z,780.00
2017-09-07T07:11:34.764Z,800.00
2017-09-07T07:12:34.757Z,792.00
2017-09-07T07:13:34.775Z,820.00
2017-09-07T07:14:34.727Z,860.00
2017-09-07T07:15:34.728Z,820.00
2017-09-07T07:16:34.707Z,832.00
2017-09-07T07:17:34.689Z,828.00
2017-09-07T07:18:35.143Z,876.00
2017-09-07T07:19:34.689Z,916.00
2017-09-07T07:20:34.659Z,952.00
2017-09-07T07:21:34.660Z,980.00
2017-09-07T07:22:34.642Z,864.00
2017-09-07T07:23:34.633Z,852.00
2017-09-07T07:24:34.988Z,812.00
2017-09-07T07:25:34.608Z,820.00
2017-09-07T07:26:34.607Z,880.00
2017-09-07T07:27:34.598Z,964.00
2017-09-07T07:28:34.574Z,932.00
2017-09-07T07:29:34.572Z,932.00
2017-09-07T07:30:34.585Z,1036.00
2017-09-07T07:31:34.561Z,1076.00
2017-09-07T07:32:34.539Z,1080.00
2017-09-07T07:33:34.544Z,1200.00
2017-09-07T07:34:34.525Z,1100.00
2017-09-07T07:35:34.546Z,1020.00
2017-09-07T07:36:34.500Z,1292.00
2017-09-07T07:37:34.486Z,1116.00
2017-09-07T07:38:34.486Z,1032.00
2017-09-07T07:39:34.477Z,1012.00
2017-09-07T07:40:34.495Z,1000.00
2017-09-07T07:41:34.452Z,1256.00
2017-09-07T07:42:34.439Z,1492.00
2017-09-07T07:43:34.423Z,1288.00
2017-09-07T07:44:34.425Z,1096.00
2017-09-07T07:45:34.438Z,1056.00
2017-09-07T07:46:34.390Z,984.00
2017-09-07T07:47:34.399Z,896.00
2017-09-07T07:48:34.376Z,744.00
2017-09-07T07:49:34.359Z,692.00
2017-09-07T07:50:34.778Z,536.00
2017-09-07T07:51:34.743Z,500.00
2017-09-07T07:52:35.103Z,560.00
2017-09-07T07:53:34.504Z,616.00
2017-09-07T07:54:35.005Z,796.00
2017-09-07T07:55:34.302Z,1064.00
2017-09-07T07:56:37.501Z,1216.00
2017-09-07T07:57:34.286Z,1128.00
2017-09-07T07:58:35.080Z,1344.00
2017-09-07T07:59:34.261Z,1380.00
2017-09-07T08:00:34.260Z,1196.00
2017-09-07T08:01:34.251Z,1288.00
2017-09-07T08:02:34.541Z,1332.00
2017-09-07T08:03:34.224Z,1436.00
2017-09-07T08:04:34.230Z,1504.00
2017-09-07T08:05:34.221Z,1448.00
2017-09-07T08:06:34.196Z,1384.00
2017-09-07T08:07:34.199Z,1252.00
2017-09-07T08:08:34.604Z,1336.00
2017-09-07T08:09:34.174Z,1376.00
2017-09-07T08:10:34.144Z,1316.00
2017-09-07T08:11:34.161Z,1300.00
2017-09-07T08:12:34.133Z,1292.00
2017-09-07T08:13:34.120Z,1408.00
2017-09-07T08:14:34.478Z,1632.00
2017-09-07T08:15:34.098Z,1580.00
2017-09-07T08:16:34.100Z,1468.00
2017-09-07T08:17:34.078Z,1452.00
2017-09-07T08:18:34.065Z,1356.00
2017-09-07T08:19:34.070Z,1052.00
2017-09-07T08:20:34.264Z,920.00
2017-09-07T08:21:34.124Z,900.00
2017-09-07T08:22:34.038Z,736.00
2017-09-07T08:23:34.050Z,688.00
2017-09-07T08:24:34.020Z,712.00
2017-09-07T08:25:34.001Z,776.00
2017-09-07T08:26:34.327Z,712.00
2017-09-07T08:27:33.977Z,708.00
2017-09-07T08:28:33.970Z,760.00
2017-09-07T08:29:33.970Z,684.00
2017-09-07T08:30:33.947Z,736.00
2017-09-07T08:31:33.960Z,588.00
2017-09-07T08:32:34.237Z,640.00
2017-09-07T08:33:33.938Z,736.00
2017-09-07T08:34:33.914Z,652.00
2017-09-07T08:35:33.904Z,800.00
2017-09-07T08:36:33.902Z,720.00
2017-09-07T08:37:33.902Z,572.00
2017-09-07T08:38:34.321Z,544.00
2017-09-07T08:39:33.868Z,448.00
2017-09-07T08:40:33.864Z,332.00
2017-09-07T08:41:33.849Z,312.00
2017-09-07T08:42:33.831Z,380.00
2017-09-07T08:43:33.830Z,412.00
2017-09-07T08:44:34.146Z,384.00
2017-09-07T08:45:33.800Z,412.00
2017-09-07T08:46:33.797Z,436.00
2017-09-07T08:47:33.799Z,608.00
2017-09-07T08:48:33.780Z,636.00
2017-09-07T08:49:33.905Z,456.00
2017-09-07T08:50:33.774Z,536.00
2017-09-07T08:51:33.743Z,656.00
2017-09-07T08:52:33.738Z,768.00
2017-09-07T08:53:34.401Z,968.00
2017-09-07T08:54:34.706Z,936.00
2017-09-07T08:55:34.222Z,888.00
2017-09-07T08:56:33.698Z,772.00
2017-09-07T08:57:33.680Z,656.00
2017-09-07T08:58:33.678Z,600.00
2017-09-07T08:59:33.664Z,564.00
2017-09-07T09:00:33.711Z,656.00
2017-09-07T09:01:33.642Z,664.00
2017-09-07T09:02:33.642Z,752.00
2017-09-07T09:03:33.628Z,788.00
2017-09-07T09:04:33.607Z,664.00
2017-09-07T09:05:34.001Z,588.00
2017-09-07T09:06:33.642Z,644.00
2017-09-07T09:07:33.584Z,688.00
2017-09-07T09:08:33.584Z,636.00
2017-09-07T09:09:33.564Z,672.00
2017-09-07T09:10:33.574Z,840.00
2017-09-07T09:11:33.854Z,1028.00
2017-09-07T09:12:33.556Z,1212.00
2017-09-07T09:13:33.533Z,1452.00
2017-09-07T09:14:33.528Z,1636.00
2017-09-07T09:15:33.510Z,1864.00
2017-09-07T09:16:33.514Z,1904.00
2017-09-07T09:17:33.831Z,2024.00
2017-09-07T09:18:33.471Z,1772.00
2017-09-07T09:19:33.476Z,1696.00
2017-09-07T09:20:33.452Z,1508.00
2017-09-07T09:21:33.601Z,1336.00
2017-09-07T09:22:33.444Z,1128.00
2017-09-07T09:23:40.527Z,1104.00
2017-09-07T09:24:33.422Z,992.00
2017-09-07T09:25:33.422Z,1072.00
2017-09-07T09:26:33.801Z,1000.00
2017-09-07T09:27:33.388Z,1044.00
2017-09-07T09:28:33.426Z,1080.00
2017-09-07T09:29:33.626Z,988.00
2017-09-07T09:30:33.374Z,1056.00
2017-09-07T09:31:33.348Z,1072.00
2017-09-07T09:32:34.289Z,904.00
2017-09-07T09:33:33.356Z,956.00
2017-09-07T09:34:33.535Z,1040.00
2017-09-07T09:35:34.152Z,1008.00
2017-09-07T09:36:33.322Z,1100.00
2017-09-07T09:37:33.304Z,1284.00
2017-09-07T09:38:33.635Z,1320.00
2017-09-07T09:39:33.286Z,1460.00
2017-09-07T09:40:33.288Z,1472.00
2017-09-07T09:41:33.267Z,1656.00
2017-09-07T09:42:33.246Z,1968.00
2017-09-07T09:43:33.240Z,1808.00
2017-09-07T09:44:33.252Z,1760.00
2017-09-07T09:45:33.228Z,1608.00
2017-09-07T09:46:34.602Z,1424.00
2017-09-07T09:47:33.210Z,1200.00
2017-09-07T09:48:33.618Z,944.00
2017-09-07T09:49:36.656Z,856.00
2017-09-07T09:50:33.181Z,812.00
2017-09-07T09:51:33.170Z,856.00
2017-09-07T09:52:33.490Z,1012.00
2017-09-07T09:53:33.253Z,1220.00
2017-09-07T09:54:33.611Z,1520.00
2017-09-07T09:55:33.138Z,1612.00
2017-09-07T09:56:33.149Z,1568.00
2017-09-07T09:57:33.103Z,1444.00
2017-09-07T09:58:33.104Z,1284.00
2017-09-07T09:59:33.094Z,1288.00
2017-09-07T10:00:33.457Z,1172.00
2017-09-07T10:01:33.349Z,1228.00
2017-09-07T10:02:33.066Z,1208.00
2017-09-07T10:03:33.060Z,1168.00
2017-09-07T10:04:33.036Z,1104.00
2017-09-07T10:05:33.038Z,1076.00
2017-09-07T10:06:33.595Z,1128.00
2017-09-07T10:07:33.020Z,1236.00
2017-09-07T10:08:32.996Z,1460.00
2017-09-07T10:09:32.993Z,1592.00
2017-09-07T10:10:32.991Z,1628.00
2017-09-07T10:11:32.973Z,1760.00
2017-09-07T10:12:33.417Z,1748.00
2017-09-07T10:13:32.970Z,1848.00
2017-09-07T10:14:32.960Z,1916.00
2017-09-07T10:15:32.950Z,1992.00
2017-09-07T10:16:32.934Z,1944.00
2017-09-07T10:17:32.918Z,2104.00
2017-09-07T10:18:32.944Z,2164.00
2017-09-07T10:19:33.873Z,2064.00
2017-09-07T10:20:32.893Z,1376.00
2017-09-07T10:21:32.882Z,1228.00
2017-09-07T10:22:33.156Z,1240.00
2017-09-07T10:23:32.880Z,1188.00
2017-09-07T10:24:32.865Z,1080.00
2017-09-07T10:25:33.079Z,1192.00
2017-09-07T10:26:32.838Z,1304.00
2017-09-07T10:27:32.831Z,1540.00
2017-09-07T10:28:32.813Z,1968.00
2017-09-07T10:29:32.815Z,1676.00
2017-09-07T10:30:32.922Z,2288.00
2017-09-07T10:31:32.822Z,2312.00
2017-09-07T10:32:32.781Z,2280.00
2017-09-07T10:33:32.769Z,2144.00
2017-09-07T10:34:32.771Z,2004.00
2017-09-07T10:35:32.773Z,1676.00
2017-09-07T10:36:33.072Z,1588.00
2017-09-07T10:37:32.775Z,1280.00
2017-09-07T10:38:33.434Z,1156.00
2017-09-07T10:39:32.729Z,1480.00
2017-09-07T10:40:32.760Z,1816.00
2017-09-07T10:41:33.009Z,2064.00
2017-09-07T10:42:33.121Z,2356.00
2017-09-07T10:43:32.707Z,2216.00
2017-09-07T10:44:32.675Z,2180.00
2017-09-07T10:45:32.675Z,2268.00
2017-09-07T10:46:32.658Z,2504.00
2017-09-07T10:47:32.663Z,2820.00
2017-09-07T10:48:32.981Z,3044.00
2017-09-07T10:49:32.649Z,2764.00
2017-09-07T10:50:32.633Z,1948.00
2017-09-07T10:51:32.630Z,1792.00
2017-09-07T10:52:32.606Z,1888.00
2017-09-07T10:53:32.609Z,2216.00
2017-09-07T10:54:32.870Z,1968.00
2017-09-07T10:55:32.680Z,2204.00
2017-09-07T10:56:32.572Z,2240.00
2017-09-07T10:57:32.566Z,2476.00
2017-09-07T10:58:32.573Z,3200.00
2017-09-07T10:59:32.562Z,3040.00
2017-09-07T11:00:32.883Z,3164.00
2017-09-07T11:01:32.546Z,2580.00
2017-09-07T11:02:32.528Z,2012.00
2017-09-07T11:03:32.514Z,1792.00
2017-09-07T11:04:32.518Z,1796.00
2017-09-07T11:05:32.513Z,1632.00
2017-09-07T11:06:32.535Z,1528.00
2017-09-07T11:07:32.492Z,1472.00
2017-09-07T11:08:32.494Z,1572.00
2017-09-07T11:09:32.466Z,1700.00
2017-09-07T11:10:32.463Z,1356.00
2017-09-07T11:11:32.748Z,1112.00
2017-09-07T11:12:32.449Z,1236.00
2017-09-07T11:13:32.454Z,1332.00
2017-09-07T11:14:32.428Z,1456.00
2017-09-07T11:15:32.409Z,1700.00
2017-09-07T11:16:32.412Z,2072.00
2017-09-07T11:17:32.819Z,2324.00
2017-09-07T11:18:32.391Z,2360.00
2017-09-07T11:19:32.376Z,2288.00
2017-09-07T11:20:32.481Z,2468.00
2017-09-07T11:21:32.374Z,2196.00
2017-09-07T11:22:32.351Z,2408.00
2017-09-07T11:23:32.789Z,2172.00
2017-09-07T11:24:32.354Z,2168.00
2017-09-07T11:25:32.347Z,2440.00
2017-09-07T11:26:32.322Z,3256.00
2017-09-07T11:27:32.322Z,3260.00
2017-09-07T11:28:32.301Z,2644.00
2017-09-07T11:29:32.609Z,2604.00
2017-09-07T11:30:32.295Z,2704.00
2017-09-07T11:31:32.291Z,3232.00
2017-09-07T11:32:32.273Z,2804.00
2017-09-07T11:33:32.278Z,2568.00
2017-09-07T11:34:32.261Z,2220.00
2017-09-07T11:35:32.671Z,2180.00
2017-09-07T11:36:32.239Z,2076.00
2017-09-07T11:37:32.225Z,1992.00
2017-09-07T11:38:32.216Z,2448.00
2017-09-07T11:39:32.218Z,2144.00
2017-09-07T11:40:32.218Z,2504.00
2017-09-07T11:41:32.233Z,2332.00
2017-09-07T11:42:32.187Z,2188.00
2017-09-07T11:43:32.188Z,1768.00
2017-09-07T11:44:32.171Z,1964.00
2017-09-07T11:45:32.184Z,1268.00
2017-09-07T11:46:32.153Z,1100.00
2017-09-07T11:47:32.156Z,1028.00
2017-09-07T11:48:32.132Z,1028.00
2017-09-07T11:49:32.138Z,1152.00
2017-09-07T11:50:32.157Z,1384.00
2017-09-07T11:51:32.120Z,1268.00
2017-09-07T11:52:32.110Z,1412.00
2017-09-07T11:53:32.109Z,1384.00
2017-09-07T11:54:32.082Z,1372.00
2017-09-07T11:55:32.133Z,1400.00
2017-09-07T11:56:32.076Z,1324.00
2017-09-07T11:57:32.083Z,1332.00
2017-09-07T11:58:32.058Z,1400.00
2017-09-07T11:59:32.062Z,1192.00
2017-09-07T12:00:32.356Z,1256.00
2017-09-07T12:01:32.042Z,1252.00
2017-09-07T12:02:32.017Z,1312.00
2017-09-07T12:03:32.020Z,1340.00
2017-09-07T12:04:32.019Z,1436.00
2017-09-07T12:05:31.992Z,1560.00
2017-09-07T12:06:32.019Z,1776.00
2017-09-07T12:07:31.970Z,1540.00
2017-09-07T12:08:31.987Z,1532.00
2017-09-07T12:09:31.968Z,1508.00
2017-09-07T12:10:31.951Z,1492.00
2017-09-07T12:11:32.250Z,1520.00
2017-09-07T12:12:31.933Z,1488.00
2017-09-07T12:13:31.921Z,1552.00
2017-09-07T12:14:31.925Z,1604.00
2017-09-07T12:15:31.911Z,1612.00
2017-09-07T12:16:31.900Z,1452.00
2017-09-07T12:17:32.241Z,1144.00
2017-09-07T12:18:31.890Z,932.00
2017-09-07T12:19:31.873Z,660.00
2017-09-07T12:20:31.874Z,660.00
2017-09-07T12:21:31.870Z,876.00
2017-09-07T12:22:31.853Z,1124.00
2017-09-07T12:23:32.121Z,1308.00
2017-09-07T12:24:31.830Z,1592.00
2017-09-07T12:25:31.828Z,2100.00
2017-09-07T12:26:31.816Z,2584.00
2017-09-07T12:27:31.809Z,3040.00
2017-09-07T12:28:31.808Z,3520.00
2017-09-07T12:29:32.211Z,3736.00
2017-09-07T12:30:31.799Z,3392.00
2017-09-07T12:31:52.772Z,3420.00
2017-09-07T12:32:31.765Z,3824.00
2017-09-07T12:33:31.761Z,3940.00
2017-09-07T12:34:31.753Z,3888.00
2017-09-07T12:35:32.075Z,4740.00
2017-09-07T12:36:31.744Z,4032.00
2017-09-07T12:37:31.740Z,3828.00
2017-09-07T12:38:31.723Z,3988.00
2017-09-07T12:39:31.717Z,5288.00
2017-09-07T12:40:31.903Z,4160.00